Sipu Muin — CHCGA — position and weather

sailwx.info

Track history (hours):
 
Tides and Currents Weather Stations Pressure Air Temp Water Temp Dewpoint Dewpoint Depression Visibility Wind Speed Wind Dir Waves Ship Positions

Sipu Muin

Last reported at 2017-Mar-29 18:22 UTC. Time now 2017-Apr-29 03:30 UTC.
Position N 45°25' W 073°46'.
Warning: this ship's position is 30 days out of date.

Length 37 m.

Type: High speed craft. MMSI: 316001988.

Date/timePositionNaut miles runAvg speedWind from/ knotsBaromVisibWave heightAir tempDewpointWater temp
2017-Mar-29 18:22N 45°25' W 073°46'1011.5
2017-Mar-29 17:28N 45°21' W 073°59'2 1.1
2017-Mar-29 16:07N 45°20' W 073°58'0 0.4
2017-Mar-29 15:31N 45°20' W 073°58'8 7.8
2017-Mar-29 14:33N 45°23' W 073°48'4 0.2
2017-Mar-28 19:28N 45°25' W 073°44'1011.0
2017-Mar-28 18:32N 45°20' W 073°57'1 0.6
2017-Mar-28 17:10N 45°20' W 073°56'3 4.5
2017-Mar-28 16:32N 45°20' W 073°52'0 0.0
2017-Mar-28 15:33N 45°20' W 073°52'2 2.0
2017-Mar-28 14:26N 45°22' W 073°50'  
Track history (hours):
 
Tides and Currents Weather Stations Pressure Air Temp Water Temp Dewpoint Dewpoint Depression Visibility Wind Speed Wind Dir Waves Ship Positions

Sipu Muin

Last reported at 2017-Mar-29 18:22 UTC. Time now 2017-Apr-29 03:30 UTC.
Position N 45°25' W 073°46'.
Warning: this ship's position is 30 days out of date.

Length 37 m.

Type: High speed craft. MMSI: 316001988.

Date/timePositionNaut miles runAvg speedWind from/ knotsBaromVisibWave heightAir tempDewpointWater temp
2017-Mar-29 18:22N 45°25' W 073°46'1011.5
2017-Mar-29 17:28N 45°21' W 073°59'2 1.1
2017-Mar-29 16:07N 45°20' W 073°58'0 0.4
2017-Mar-29 15:31N 45°20' W 073°58'8 7.8
2017-Mar-29 14:33N 45°23' W 073°48'4 0.2
2017-Mar-28 19:28N 45°25' W 073°44'1011.0
2017-Mar-28 18:32N 45°20' W 073°57'1 0.6
2017-Mar-28 17:10N 45°20' W 073°56'3 4.5
2017-Mar-28 16:32N 45°20' W 073°52'0 0.0
2017-Mar-28 15:33N 45°20' W 073°52'2 2.0
2017-Mar-28 14:26N 45°22' W 073°50'  

Dump ship's entire track history